createdAt,value
2019-01-30T00:02:34.195Z,79.87
2019-01-30T00:07:36.178Z,79.10
2019-01-30T00:12:38.198Z,79.24
2019-01-30T00:17:40.159Z,78.91
2019-01-30T00:22:42.171Z,79.47
2019-01-30T00:27:44.220Z,79.40
2019-01-30T00:32:46.470Z,79.14
2019-01-30T00:37:48.443Z,78.78
2019-01-30T00:42:50.704Z,78.87
2019-01-30T00:47:52.731Z,79.10
2019-01-30T00:52:54.747Z,79.05
2019-01-30T00:57:56.724Z,79.50
2019-01-30T01:02:58.848Z,79.86
2019-01-30T01:08:00.880Z,80.25
2019-01-30T01:13:03.095Z,80.33
2019-01-30T01:18:05.137Z,80.63
2019-01-30T01:23:07.171Z,81.24
2019-01-30T01:28:09.211Z,81.35
2019-01-30T01:33:11.630Z,80.82
2019-01-30T01:38:13.583Z,80.80
2019-01-30T01:43:15.688Z,80.59
2019-01-30T01:48:17.949Z,81.00
2019-01-30T01:53:20.043Z,80.46
2019-01-30T01:58:22.100Z,80.56
2019-01-30T02:03:24.181Z,80.79
2019-01-30T02:08:26.180Z,80.30
2019-01-30T02:13:28.362Z,80.37
2019-01-30T02:18:30.525Z,80.41
2019-01-30T02:23:32.633Z,80.17
2019-01-30T02:28:34.619Z,80.29
2019-01-30T02:33:36.810Z,80.03
2019-01-30T02:38:39.138Z,79.80
2019-01-30T02:43:41.146Z,80.08
2019-01-30T02:48:43.427Z,79.56
2019-01-30T02:53:45.760Z,79.42
2019-01-30T02:58:47.809Z,79.37
2019-01-30T03:03:49.802Z,79.52
2019-01-30T03:08:51.824Z,79.39
2019-01-30T03:13:54.057Z,78.83
2019-01-30T03:18:56.111Z,78.48
2019-01-30T03:23:58.091Z,78.55
2019-01-30T03:29:00.116Z,78.02
2019-01-30T03:34:02.089Z,78.33
2019-01-30T03:39:06.416Z,77.82
2019-01-30T03:44:08.399Z,77.58
2019-01-30T03:49:10.406Z,77.93
2019-01-30T03:54:12.467Z,77.44
2019-01-30T03:59:14.423Z,77.52
2019-01-30T04:04:16.383Z,77.52
2019-01-30T04:09:18.396Z,77.47
2019-01-30T04:14:20.350Z,77.06
2019-01-30T04:19:22.479Z,76.92
2019-01-30T04:24:24.443Z,76.68
2019-01-30T04:29:26.455Z,76.67
2019-01-30T04:34:28.453Z,76.67
2019-01-30T04:39:30.406Z,76.60
2019-01-30T04:44:32.477Z,76.12
2019-01-30T04:49:34.599Z,76.57
2019-01-30T04:54:36.625Z,76.33
2019-01-30T04:59:38.697Z,75.80
2019-01-30T05:04:40.689Z,75.95
2019-01-30T05:09:42.724Z,75.93
2019-01-30T05:14:44.725Z,75.61
2019-01-30T05:19:46.757Z,75.83
2019-01-30T05:24:48.773Z,75.46
2019-01-30T05:29:50.833Z,75.97
2019-01-30T05:34:52.836Z,75.32
2019-01-30T05:39:54.879Z,75.34
2019-01-30T05:44:57.186Z,74.47
2019-01-30T05:49:59.282Z,74.91
2019-01-30T05:55:01.307Z,74.74
2019-01-30T06:00:06.056Z,74.87
2019-01-30T06:05:10.636Z,74.87
2019-01-30T06:10:12.736Z,74.70
2019-01-30T06:15:15.009Z,74.90
2019-01-30T06:20:19.248Z,74.75
2019-01-30T06:25:21.265Z,74.59
2019-01-30T06:30:23.548Z,74.41
2019-01-30T06:35:25.678Z,74.70
2019-01-30T06:40:30.084Z,75.80
2019-01-30T06:45:32.101Z,78.28
2019-01-30T06:50:34.134Z,79.61
2019-01-30T06:55:36.366Z,79.79
2019-01-30T07:00:38.359Z,79.88
2019-01-30T07:05:40.675Z,79.30
2019-01-30T07:10:42.680Z,80.68
2019-01-30T07:15:44.696Z,80.96
2019-01-30T07:20:46.688Z,82.21
2019-01-30T07:25:48.707Z,83.37
2019-01-30T07:30:50.768Z,84.23
2019-01-30T07:35:52.757Z,84.96
2019-01-30T07:40:54.766Z,86.81
2019-01-30T07:45:56.857Z,88.10
2019-01-30T07:50:58.885Z,88.58
2019-01-30T07:56:00.951Z,88.72
2019-01-30T08:01:03.181Z,89.04
2019-01-30T08:06:05.439Z,89.36
2019-01-30T08:11:07.607Z,89.28
2019-01-30T08:16:09.586Z,89.31
2019-01-30T08:21:11.695Z,90.28
2019-01-30T08:26:14.132Z,89.80
2019-01-30T08:31:16.551Z,90.06
2019-01-30T08:36:18.672Z,89.29
2019-01-30T08:41:20.643Z,89.74
2019-01-30T08:46:22.684Z,88.94
2019-01-30T08:51:24.698Z,88.36
2019-01-30T08:56:26.973Z,88.25
2019-01-30T09:01:29.006Z,87.63
2019-01-30T09:06:31.034Z,87.03
2019-01-30T09:11:33.035Z,87.61
2019-01-30T09:16:35.041Z,86.94
2019-01-30T09:21:37.096Z,87.44
2019-01-30T09:26:39.048Z,87.10
2019-01-30T09:31:41.004Z,86.87
2019-01-30T09:36:43.522Z,86.04
2019-01-30T09:41:45.452Z,85.77
2019-01-30T09:46:47.451Z,85.22
2019-01-30T09:51:49.749Z,85.02
2019-01-30T09:56:51.775Z,84.21
2019-01-30T10:01:53.806Z,83.34
2019-01-30T10:06:55.888Z,82.36
2019-01-30T10:11:57.949Z,81.41
2019-01-30T10:16:59.997Z,81.23
2019-01-30T10:22:02.142Z,80.80
2019-01-30T10:27:04.230Z,80.56
2019-01-30T10:32:06.532Z,80.94
2019-01-30T10:37:08.573Z,80.17
2019-01-30T10:42:10.551Z,80.35
2019-01-30T10:47:12.859Z,79.84
2019-01-30T10:52:14.941Z,79.23
2019-01-30T10:57:17.194Z,80.41
2019-01-30T11:02:19.230Z,79.56
2019-01-30T11:07:21.703Z,79.05
2019-01-30T11:12:23.698Z,79.92
2019-01-30T11:17:25.986Z,78.58
2019-01-30T11:22:27.985Z,78.42
2019-01-30T11:27:29.978Z,78.11
2019-01-30T11:32:32.771Z,78.41
2019-01-30T11:37:35.284Z,77.63
2019-01-30T11:42:37.339Z,76.69
2019-01-30T11:47:39.339Z,77.50
2019-01-30T11:52:41.587Z,78.63
2019-01-30T11:57:43.804Z,77.98
2019-01-30T12:02:47.847Z,78.83
2019-01-30T12:07:49.721Z,78.41
2019-01-30T12:12:51.740Z,77.85
2019-01-30T12:17:53.759Z,77.95
2019-01-30T12:22:55.786Z,78.18
2019-01-30T12:27:57.840Z,78.70
2019-01-30T12:32:59.879Z,78.90
2019-01-30T12:38:01.965Z,78.91
2019-01-30T12:43:04.748Z,79.40
2019-01-30T12:48:07.217Z,79.19
2019-01-30T12:53:10.188Z,79.51
2019-01-30T12:58:12.273Z,79.33
2019-01-30T13:03:14.540Z,79.49
2019-01-30T13:08:16.543Z,79.03
2019-01-30T13:13:18.659Z,78.67
2019-01-30T13:18:20.648Z,78.73
2019-01-30T13:23:22.784Z,79.34
2019-01-30T13:28:24.807Z,78.86
2019-01-30T13:33:26.887Z,79.37
2019-01-30T13:38:28.955Z,79.42
2019-01-30T13:43:31.214Z,79.30
2019-01-30T13:48:33.230Z,79.69
2019-01-30T13:53:37.201Z,79.08
2019-01-30T13:58:39.396Z,79.09
2019-01-30T14:03:41.752Z,79.13
2019-01-30T14:08:43.763Z,79.50
2019-01-30T14:13:46.108Z,79.72
2019-01-30T14:18:48.421Z,79.78
2019-01-30T14:23:50.416Z,80.29
2019-01-30T14:28:53.304Z,81.52
2019-01-30T14:33:55.545Z,81.85
2019-01-30T14:38:57.640Z,81.80
2019-01-30T14:44:00.190Z,82.00
2019-01-30T14:49:02.273Z,82.62
2019-01-30T14:54:04.582Z,84.78
2019-01-30T14:59:06.537Z,86.38
2019-01-30T15:04:08.688Z,87.07
2019-01-30T15:09:10.655Z,87.59
2019-01-30T15:14:12.687Z,88.15
2019-01-30T15:19:14.651Z,88.01
2019-01-30T15:24:16.932Z,88.28
2019-01-30T15:29:18.937Z,88.71
2019-01-30T15:34:20.991Z,88.48
2019-01-30T15:39:22.977Z,88.05
2019-01-30T15:44:25.267Z,88.59
2019-01-30T15:49:27.294Z,88.58
2019-01-30T15:54:29.288Z,88.82
2019-01-30T15:59:31.290Z,89.34
2019-01-30T16:04:33.260Z,89.52
2019-01-30T16:09:35.417Z,89.68
2019-01-30T16:14:37.427Z,89.38
2019-01-30T16:19:39.401Z,89.49
2019-01-30T16:24:41.374Z,89.68
2019-01-30T16:29:43.819Z,89.59
2019-01-30T16:34:45.771Z,89.39
2019-01-30T16:39:47.827Z,90.08
2019-01-30T16:44:49.886Z,90.15
2019-01-30T16:49:52.134Z,90.05
2019-01-30T16:54:54.136Z,89.88
2019-01-30T16:59:56.395Z,89.88
2019-01-30T17:04:58.824Z,90.06
2019-01-30T17:10:00.975Z,90.51
2019-01-30T17:15:03.952Z,90.79
2019-01-30T17:20:10.202Z,90.81
2019-01-30T17:25:13.079Z,90.44
2019-01-30T17:30:35.791Z,90.28
2019-01-30T17:35:39.050Z,90.15
2019-01-30T17:40:41.491Z,89.68
2019-01-30T17:45:43.520Z,89.75
2019-01-30T17:50:45.511Z,90.15
2019-01-30T17:55:47.583Z,90.24
2019-01-30T18:00:56.114Z,90.60
2019-01-30T18:05:58.417Z,90.85
2019-01-30T18:11:00.655Z,91.18
2019-01-30T18:16:03.199Z,91.34
2019-01-30T18:21:08.185Z,91.43
2019-01-30T18:26:10.270Z,91.14
2019-01-30T18:31:12.293Z,91.00
2019-01-30T18:36:14.584Z,91.98
2019-01-30T18:41:16.611Z,89.51
2019-01-30T18:46:18.600Z,88.73
2019-01-30T18:51:20.610Z,87.62
2019-01-30T18:56:22.595Z,87.90
2019-01-30T19:01:24.648Z,89.58
2019-01-30T19:06:26.754Z,89.01
2019-01-30T19:11:28.768Z,90.13
2019-01-30T19:16:30.852Z,90.41
2019-01-30T19:21:32.970Z,90.30
2019-01-30T19:26:35.094Z,91.84
2019-01-30T19:31:37.169Z,92.99
2019-01-30T19:36:39.231Z,93.68
2019-01-30T19:41:41.282Z,93.43
2019-01-30T19:46:43.335Z,92.64
2019-01-30T19:51:45.341Z,92.57
2019-01-30T19:56:47.406Z,92.09
2019-01-30T20:01:49.443Z,92.00
2019-01-30T20:06:51.496Z,91.68
2019-01-30T20:11:53.526Z,91.22
2019-01-30T20:16:55.570Z,90.10
2019-01-30T20:21:57.872Z,89.21
2019-01-30T20:26:59.908Z,88.75
2019-01-30T20:32:01.987Z,87.92
2019-01-30T20:37:04.132Z,87.68
2019-01-30T20:42:06.166Z,87.01
2019-01-30T20:47:08.157Z,86.69
2019-01-30T20:52:10.239Z,86.72
2019-01-30T20:57:12.311Z,86.46
2019-01-30T21:02:14.334Z,86.07
2019-01-30T21:07:16.363Z,85.87
2019-01-30T21:12:18.422Z,86.03
2019-01-30T21:17:20.494Z,85.43
2019-01-30T21:22:23.049Z,85.10
2019-01-30T21:27:25.336Z,84.42
2019-01-30T21:32:27.387Z,84.61
2019-01-30T21:37:29.491Z,83.80
2019-01-30T21:42:31.587Z,83.17
2019-01-30T21:47:33.684Z,83.09
2019-01-30T21:52:35.703Z,83.05
2019-01-30T21:57:37.781Z,82.61
2019-01-30T22:02:39.862Z,82.99
2019-01-30T22:07:41.924Z,82.63
2019-01-30T22:12:43.943Z,82.53
2019-01-30T22:17:45.987Z,82.80
2019-01-30T22:22:48.080Z,82.52
2019-01-30T22:27:50.393Z,83.16
2019-01-30T22:32:52.400Z,83.28
2019-01-30T22:37:54.542Z,83.01
2019-01-30T22:42:57.543Z,83.01
2019-01-30T22:47:59.627Z,83.35
2019-01-30T22:53:01.913Z,83.75
2019-01-30T22:58:04.210Z,83.84
2019-01-30T23:03:06.438Z,84.10
2019-01-30T23:08:24.616Z,83.63
2019-01-30T23:13:59.835Z,83.86
2019-01-30T23:19:35.794Z,84.13
2019-01-30T23:25:15.324Z,84.05
2019-01-30T23:30:41.409Z,84.60
2019-01-30T23:36:26.863Z,84.87
2019-01-30T23:41:43.240Z,84.51
2019-01-30T23:47:09.354Z,84.69
2019-01-30T23:52:58.939Z,84.60
2019-01-30T23:58:17.693Z,84.44
